createdAt,value
2018-06-30T00:01:30.654Z,39.80
2018-06-30T00:03:34.742Z,38.97
2018-06-30T00:05:37.784Z,38.10
2018-06-30T00:07:40.638Z,37.20
2018-06-30T00:09:43.820Z,37.63
2018-06-30T00:11:47.001Z,34.30
2018-06-30T00:13:50.096Z,34.73
2018-06-30T00:15:53.082Z,33.40
2018-06-30T00:17:57.098Z,34.67
2018-06-30T00:19:59.873Z,31.83
2018-06-30T00:22:02.907Z,32.60
2018-06-30T00:24:05.838Z,30.57
2018-06-30T00:26:08.808Z,28.47
2018-06-30T00:28:13.749Z,31.43
2018-06-30T00:30:16.785Z,29.03
2018-06-30T00:32:19.808Z,27.43
2018-06-30T00:34:22.901Z,27.67
2018-06-30T00:36:26.201Z,26.33
2018-06-30T00:38:29.063Z,26.07
2018-06-30T00:40:32.170Z,24.83
2018-06-30T00:42:35.137Z,29.77
2018-06-30T00:44:38.224Z,31.00
2018-06-30T00:46:41.207Z,30.07
2018-06-30T00:48:47.491Z,30.47
2018-06-30T00:50:58.547Z,30.60
2018-06-30T00:53:01.631Z,31.70
2018-06-30T00:55:04.893Z,34.13
2018-06-30T00:57:08.619Z,40.27
2018-06-30T00:59:11.770Z,38.50
2018-06-30T01:01:14.904Z,36.50
2018-06-30T01:03:17.847Z,36.50
2018-06-30T01:05:22.503Z,28.70
2018-06-30T01:07:25.588Z,32.53
2018-06-30T01:09:29.077Z,27.73
2018-06-30T01:11:33.878Z,29.03
2018-06-30T01:13:36.982Z,26.67
2018-06-30T01:15:40.040Z,25.27
2018-06-30T01:17:42.819Z,22.17
2018-06-30T01:19:45.960Z,22.03
2018-06-30T01:21:48.919Z,22.90
2018-06-30T01:23:51.811Z,23.93
2018-06-30T01:25:55.004Z,24.20
2018-06-30T01:27:58.003Z,23.13
2018-06-30T01:30:00.986Z,23.03
2018-06-30T01:32:04.256Z,19.73
2018-06-30T01:34:07.471Z,22.00
2018-06-30T01:36:10.730Z,19.87
2018-06-30T01:38:14.335Z,19.83
2018-06-30T01:40:17.882Z,23.80
2018-06-30T01:42:20.805Z,19.83
2018-06-30T01:44:23.698Z,20.03
2018-06-30T01:46:26.986Z,20.00
2018-06-30T01:48:30.000Z,18.20
2018-06-30T01:50:32.937Z,17.27
2018-06-30T01:52:36.958Z,17.80
2018-06-30T01:54:39.831Z,17.70
2018-06-30T01:56:42.923Z,17.37
2018-06-30T01:58:46.837Z,17.83
2018-06-30T02:00:49.910Z,15.57
2018-06-30T02:02:53.117Z,17.70
2018-06-30T02:04:56.417Z,16.20
2018-06-30T02:06:59.491Z,15.33
2018-06-30T02:09:02.353Z,14.37
2018-06-30T02:11:05.444Z,16.67
2018-06-30T02:13:09.344Z,14.57
2018-06-30T02:15:12.440Z,15.70
2018-06-30T02:17:15.722Z,15.93
2018-06-30T02:19:19.943Z,19.70
2018-06-30T02:21:23.249Z,16.60
2018-06-30T02:23:26.207Z,16.10
2018-06-30T02:25:29.533Z,19.93
2018-06-30T02:27:32.593Z,16.73
2018-06-30T02:29:35.776Z,17.23
2018-06-30T02:31:38.650Z,16.17
2018-06-30T02:33:45.545Z,18.27
2018-06-30T02:35:48.928Z,15.90
2018-06-30T02:37:52.025Z,15.57
2018-06-30T02:39:54.999Z,14.13
2018-06-30T02:41:58.195Z,14.57
2018-06-30T02:44:01.889Z,15.37
2018-06-30T02:46:05.044Z,13.83
2018-06-30T02:48:08.172Z,15.27
2018-06-30T02:50:11.245Z,14.70
2018-06-30T02:52:14.427Z,16.60
2018-06-30T02:54:17.524Z,13.03
2018-06-30T02:56:20.704Z,13.47
2018-06-30T02:58:24.028Z,12.67
2018-06-30T03:00:27.324Z,14.27
2018-06-30T03:02:30.171Z,13.57
2018-06-30T03:04:33.370Z,12.63
2018-06-30T03:06:37.213Z,14.40
2018-06-30T03:08:47.984Z,13.70
2018-06-30T03:10:51.002Z,14.87
2018-06-30T03:12:54.209Z,15.03
2018-06-30T03:14:57.218Z,14.13
2018-06-30T03:17:00.490Z,12.80
2018-06-30T03:19:03.666Z,13.27
2018-06-30T03:21:08.518Z,14.03
2018-06-30T03:23:11.754Z,12.50
2018-06-30T03:25:14.885Z,13.43
2018-06-30T03:27:18.063Z,11.67
2018-06-30T03:29:21.040Z,12.77
2018-06-30T03:31:24.356Z,11.93
2018-06-30T03:33:27.525Z,13.13
2018-06-30T03:35:30.607Z,12.33
2018-06-30T03:37:33.796Z,12.80
2018-06-30T03:39:36.890Z,12.00
2018-06-30T03:41:39.958Z,11.70
2018-06-30T03:43:42.962Z,11.50
2018-06-30T03:45:45.827Z,11.80
2018-06-30T03:47:49.028Z,14.97
2018-06-30T03:49:51.909Z,16.03
2018-06-30T03:51:56.526Z,17.00
2018-06-30T03:53:59.526Z,16.60
2018-06-30T03:56:02.569Z,17.40
2018-06-30T03:58:05.530Z,15.50
2018-06-30T04:00:08.659Z,16.87
2018-06-30T04:02:11.948Z,16.27
2018-06-30T04:04:15.760Z,14.63
2018-06-30T04:06:18.637Z,13.63
2018-06-30T04:08:21.954Z,15.27
2018-06-30T04:10:25.115Z,13.80
2018-06-30T04:12:28.198Z,12.83
2018-06-30T04:14:31.915Z,13.43
2018-06-30T04:16:38.765Z,12.93
2018-06-30T04:18:41.666Z,12.90
2018-06-30T04:20:44.644Z,11.87
2018-06-30T04:22:47.622Z,12.13
2018-06-30T04:24:50.606Z,11.77
2018-06-30T04:26:53.690Z,12.63
2018-06-30T04:28:56.577Z,12.10
2018-06-30T04:31:00.366Z,11.00
2018-06-30T04:33:03.372Z,11.60
2018-06-30T04:35:06.573Z,12.00
2018-06-30T04:37:09.520Z,11.97
2018-06-30T04:39:12.611Z,11.93
2018-06-30T04:41:16.411Z,12.07
2018-06-30T04:43:19.391Z,12.80
2018-06-30T04:45:22.385Z,12.53
2018-06-30T04:47:25.607Z,12.93
2018-06-30T04:49:28.550Z,12.77
2018-06-30T04:51:31.432Z,12.37
2018-06-30T04:53:34.402Z,11.60
2018-06-30T04:55:37.704Z,12.77
2018-06-30T04:57:40.940Z,12.30
2018-06-30T04:59:45.320Z,13.60
2018-06-30T05:01:48.735Z,12.40
2018-06-30T05:03:51.696Z,12.57
2018-06-30T05:05:54.574Z,12.47
2018-06-30T05:07:57.426Z,13.03
2018-06-30T05:10:00.330Z,13.57
2018-06-30T05:12:03.212Z,13.60
2018-06-30T05:14:06.211Z,13.33
2018-06-30T05:16:09.088Z,12.33
2018-06-30T05:18:12.065Z,13.10
2018-06-30T05:20:14.942Z,12.93
2018-06-30T05:22:17.827Z,14.97
2018-06-30T05:24:20.709Z,13.17
2018-06-30T05:26:23.659Z,12.67
2018-06-30T05:28:26.567Z,12.23
2018-06-30T05:30:29.554Z,13.00
2018-06-30T05:32:32.431Z,12.60
2018-06-30T05:34:35.521Z,12.50
2018-06-30T05:36:38.611Z,13.13
2018-06-30T05:38:41.585Z,12.97
2018-06-30T05:40:44.574Z,14.80
2018-06-30T05:42:47.461Z,13.03
2018-06-30T05:44:50.162Z,14.50
2018-06-30T05:46:53.018Z,14.33
2018-06-30T05:48:56.108Z,14.07
2018-06-30T05:50:59.179Z,13.40
2018-06-30T05:53:02.276Z,12.80
2018-06-30T05:55:05.252Z,13.50
2018-06-30T05:57:08.233Z,12.37
2018-06-30T05:59:11.116Z,13.30
2018-06-30T06:01:14.100Z,12.23
2018-06-30T06:03:17.153Z,13.83
2018-06-30T06:05:20.070Z,12.77
2018-06-30T06:07:23.169Z,13.20
2018-06-30T06:09:26.768Z,13.70
2018-06-30T06:11:29.948Z,13.20
2018-06-30T06:13:32.930Z,12.80
2018-06-30T06:15:36.151Z,13.47
2018-06-30T06:17:39.196Z,12.07
2018-06-30T06:19:42.280Z,12.83
2018-06-30T06:21:45.218Z,11.63
2018-06-30T06:23:48.462Z,13.90
2018-06-30T06:25:51.686Z,12.70
2018-06-30T06:27:54.635Z,13.23
2018-06-30T06:29:57.619Z,13.53
2018-06-30T06:32:00.591Z,13.27
2018-06-30T06:34:03.792Z,13.43
2018-06-30T06:36:06.762Z,13.13
2018-06-30T06:38:09.846Z,14.30
2018-06-30T06:40:13.137Z,13.40
2018-06-30T06:42:17.221Z,12.90
2018-06-30T06:44:20.039Z,14.43
2018-06-30T06:46:23.008Z,14.00
2018-06-30T06:48:25.998Z,13.77
2018-06-30T06:50:29.092Z,13.80
2018-06-30T06:52:32.197Z,13.93
2018-06-30T06:54:35.162Z,13.73
2018-06-30T06:56:38.032Z,13.03
2018-06-30T06:58:42.048Z,12.43
2018-06-30T07:00:45.153Z,14.80
2018-06-30T07:02:48.109Z,13.73
2018-06-30T07:04:51.115Z,13.23
2018-06-30T07:06:53.973Z,12.90
2018-06-30T07:08:56.964Z,13.33
2018-06-30T07:11:00.061Z,13.60
2018-06-30T07:13:03.036Z,14.20
2018-06-30T07:15:05.915Z,12.03
2018-06-30T07:17:08.897Z,12.63
2018-06-30T07:19:12.027Z,13.77
2018-06-30T07:21:15.089Z,12.40
2018-06-30T07:23:17.947Z,12.67
2018-06-30T07:25:20.932Z,14.03
2018-06-30T07:27:24.014Z,12.80
2018-06-30T07:29:26.893Z,12.17
2018-06-30T07:31:30.227Z,13.67
2018-06-30T07:33:33.275Z,12.60
2018-06-30T07:35:36.050Z,12.87
2018-06-30T07:37:39.044Z,12.93
2018-06-30T07:39:41.916Z,13.10
2018-06-30T07:41:44.868Z,13.37
2018-06-30T07:43:47.995Z,13.47
2018-06-30T07:45:50.878Z,13.17
2018-06-30T07:47:53.751Z,11.83
2018-06-30T07:49:56.748Z,12.30
2018-06-30T07:51:59.826Z,12.40
2018-06-30T07:54:02.774Z,13.37
2018-06-30T07:56:05.718Z,12.77
2018-06-30T07:58:08.664Z,13.30
2018-06-30T08:00:11.544Z,12.10
2018-06-30T08:02:14.424Z,12.33
2018-06-30T08:04:17.403Z,12.73
2018-06-30T08:06:20.712Z,12.13
2018-06-30T08:08:23.792Z,12.60
2018-06-30T08:10:27.185Z,12.37
2018-06-30T08:12:30.158Z,12.27
2018-06-30T08:14:33.045Z,12.40
2018-06-30T08:16:36.033Z,11.93
2018-06-30T08:18:38.908Z,12.13
2018-06-30T08:20:42.109Z,12.40
2018-06-30T08:22:44.994Z,12.50
2018-06-30T08:24:48.187Z,11.13
2018-06-30T08:26:51.147Z,12.20
2018-06-30T08:28:54.280Z,12.63
2018-06-30T08:30:57.230Z,11.33
2018-06-30T08:33:00.201Z,11.73
2018-06-30T08:35:02.990Z,11.57
2018-06-30T08:37:05.866Z,11.67
2018-06-30T08:39:08.958Z,10.10
2018-06-30T08:41:11.833Z,11.73
2018-06-30T08:43:14.433Z,12.67
2018-06-30T08:45:17.291Z,14.77
2018-06-30T08:47:20.485Z,13.70
2018-06-30T08:49:23.629Z,13.27
2018-06-30T08:51:26.713Z,12.80
2018-06-30T08:53:29.712Z,14.43
2018-06-30T08:55:32.741Z,13.10
2018-06-30T08:57:35.903Z,11.30
2018-06-30T08:59:38.885Z,13.37
2018-06-30T09:01:41.878Z,12.57
2018-06-30T09:03:44.671Z,12.57
2018-06-30T09:05:47.194Z,13.23
2018-06-30T09:07:49.794Z,11.40
2018-06-30T09:09:52.419Z,13.47
2018-06-30T09:11:55.072Z,12.97
2018-06-30T09:13:57.617Z,12.37
2018-06-30T09:16:00.172Z,12.00
2018-06-30T09:18:02.686Z,11.80
2018-06-30T09:20:05.033Z,13.03
2018-06-30T09:22:07.580Z,11.70
2018-06-30T09:24:10.208Z,12.80
2018-06-30T09:26:12.908Z,13.77
2018-06-30T09:28:15.516Z,13.43
2018-06-30T09:30:18.101Z,12.00
2018-06-30T09:32:20.767Z,12.57
2018-06-30T09:34:23.305Z,13.30
2018-06-30T09:36:25.909Z,11.77
2018-06-30T09:38:28.454Z,12.20
2018-06-30T09:40:30.950Z,12.37
2018-06-30T09:42:33.445Z,10.63
2018-06-30T09:44:36.100Z,11.90
2018-06-30T09:46:38.585Z,11.13
2018-06-30T09:48:41.140Z,11.67
2018-06-30T09:50:43.922Z,11.90
2018-06-30T09:52:46.428Z,12.27
2018-06-30T09:54:49.103Z,11.10
2018-06-30T09:56:51.839Z,11.50
2018-06-30T09:58:54.380Z,11.57
2018-06-30T10:00:57.001Z,11.00
2018-06-30T10:03:00.295Z,11.40
2018-06-30T10:05:02.803Z,12.50
2018-06-30T10:07:05.355Z,11.90
2018-06-30T10:09:08.035Z,11.77
2018-06-30T10:11:10.580Z,11.03
2018-06-30T10:13:13.125Z,11.63
2018-06-30T10:15:15.772Z,11.57
2018-06-30T10:17:18.293Z,12.27
2018-06-30T10:19:20.831Z,11.87
2018-06-30T10:21:23.439Z,15.63
2018-06-30T10:23:25.896Z,12.17
2018-06-30T10:25:28.729Z,11.10
2018-06-30T10:27:31.541Z,10.30
2018-06-30T10:29:34.071Z,12.60
2018-06-30T10:31:36.601Z,10.73
2018-06-30T10:33:39.100Z,11.67
2018-06-30T10:35:41.596Z,11.27
2018-06-30T10:37:44.090Z,11.47
2018-06-30T10:39:46.728Z,11.60
2018-06-30T10:41:49.346Z,10.10
2018-06-30T10:43:52.024Z,11.20
2018-06-30T10:45:54.575Z,10.77
2018-06-30T10:47:57.083Z,10.47
2018-06-30T10:50:00.722Z,11.50
2018-06-30T10:52:03.351Z,12.23
2018-06-30T10:54:05.807Z,10.43
2018-06-30T10:56:08.193Z,11.20
2018-06-30T10:58:10.816Z,11.03
2018-06-30T11:00:13.467Z,11.07
2018-06-30T11:02:16.155Z,10.50
2018-06-30T11:04:18.747Z,11.07
2018-06-30T11:06:21.385Z,10.47
2018-06-30T11:08:24.083Z,10.27
2018-06-30T11:10:26.658Z,10.73
2018-06-30T11:12:29.427Z,10.17
2018-06-30T11:14:32.162Z,11.67
2018-06-30T11:16:34.815Z,12.37
2018-06-30T11:18:37.369Z,11.10
2018-06-30T11:20:39.963Z,9.90
2018-06-30T11:22:42.428Z,9.83
2018-06-30T11:24:44.978Z,10.50
2018-06-30T11:26:47.493Z,10.03
2018-06-30T11:28:50.233Z,9.60
2018-06-30T11:30:52.869Z,10.40
2018-06-30T11:32:55.194Z,9.73
2018-06-30T11:34:57.855Z,8.43
2018-06-30T11:37:00.437Z,10.53
2018-06-30T11:39:02.947Z,9.53
2018-06-30T11:41:05.537Z,9.00
2018-06-30T11:43:07.984Z,8.90
2018-06-30T11:45:10.606Z,8.60
2018-06-30T11:47:13.183Z,9.17
2018-06-30T11:49:15.673Z,9.00
2018-06-30T11:51:18.170Z,10.27
2018-06-30T11:53:20.793Z,8.70
2018-06-30T11:55:23.328Z,9.93
2018-06-30T11:57:25.781Z,8.40
2018-06-30T11:59:28.339Z,9.53
2018-06-30T12:01:30.888Z,9.30
2018-06-30T12:03:33.403Z,8.80
2018-06-30T12:05:36.077Z,9.40
2018-06-30T12:07:38.654Z,9.93
2018-06-30T12:09:41.171Z,11.20
2018-06-30T12:11:44.731Z,12.33
2018-06-30T12:13:48.110Z,9.57
2018-06-30T12:15:51.393Z,9.80
2018-06-30T12:17:54.514Z,11.90
2018-06-30T12:19:57.906Z,14.17
2018-06-30T12:22:01.195Z,9.83
2018-06-30T12:24:04.155Z,12.63
2018-06-30T12:26:07.151Z,10.20
2018-06-30T12:28:10.232Z,10.73
2018-06-30T12:30:13.377Z,9.70
2018-06-30T12:32:16.650Z,53.67
2018-06-30T12:34:19.672Z,76.90
2018-06-30T12:36:22.883Z,221.47
2018-06-30T12:38:26.202Z,655.23
2018-06-30T12:40:29.470Z,174.67
2018-06-30T12:42:32.664Z,169.43
2018-06-30T12:44:35.633Z,165.03
2018-06-30T12:46:38.622Z,152.50
2018-06-30T12:48:41.810Z,151.73
2018-06-30T12:50:45.104Z,153.00
2018-06-30T12:52:48.182Z,154.23
2018-06-30T12:54:51.424Z,145.97
2018-06-30T12:56:54.659Z,150.93
2018-06-30T12:58:57.644Z,140.27
2018-06-30T13:01:00.519Z,128.47
2018-06-30T13:03:03.519Z,131.50
2018-06-30T13:05:07.924Z,123.50
2018-06-30T13:07:11.009Z,126.53
2018-06-30T13:09:14.562Z,121.90
2018-06-30T13:11:17.598Z,109.57
2018-06-30T13:13:20.911Z,102.67
2018-06-30T13:15:23.983Z,110.67
2018-06-30T13:17:27.160Z,105.70
2018-06-30T13:19:30.044Z,94.60
2018-06-30T13:21:33.022Z,99.10
2018-06-30T13:23:36.018Z,98.30
2018-06-30T13:25:38.901Z,102.13
2018-06-30T13:27:41.641Z,90.00
2018-06-30T13:29:44.759Z,83.00
2018-06-30T13:31:47.727Z,92.37
2018-06-30T13:33:50.611Z,87.40
2018-06-30T13:35:53.610Z,82.60
2018-06-30T13:37:57.085Z,84.10
2018-06-30T13:40:00.292Z,86.13
2018-06-30T13:42:03.372Z,78.77
2018-06-30T13:44:06.557Z,79.20
2018-06-30T13:46:09.637Z,73.73
2018-06-30T13:48:12.729Z,73.10
2018-06-30T13:50:15.716Z,74.47
2018-06-30T13:52:18.911Z,77.93
2018-06-30T13:54:23.836Z,78.90
2018-06-30T13:56:28.039Z,76.63
2018-06-30T13:58:31.023Z,74.50
2018-06-30T14:00:34.213Z,68.60
2018-06-30T14:02:37.840Z,67.17
2018-06-30T14:04:46.504Z,73.50
2018-06-30T14:06:50.330Z,66.20
2018-06-30T14:08:53.439Z,58.60
2018-06-30T14:10:56.312Z,66.60
2018-06-30T14:12:59.385Z,66.23
2018-06-30T14:15:02.481Z,60.10
2018-06-30T14:17:05.421Z,59.70
2018-06-30T14:19:08.502Z,55.30
2018-06-30T14:21:11.635Z,57.90
2018-06-30T14:23:14.717Z,53.27
2018-06-30T14:25:17.708Z,48.97
2018-06-30T14:27:20.682Z,56.43
2018-06-30T14:29:23.871Z,52.07
2018-06-30T14:31:26.957Z,55.83
2018-06-30T14:33:30.042Z,53.70
2018-06-30T14:35:33.025Z,49.70
2018-06-30T14:37:35.971Z,49.30
2018-06-30T14:39:39.218Z,53.00
2018-06-30T14:41:42.284Z,52.90
2018-06-30T14:43:45.823Z,48.63
2018-06-30T14:45:48.768Z,44.57
2018-06-30T14:47:51.753Z,46.53
2018-06-30T14:49:54.731Z,53.70
2018-06-30T14:51:57.609Z,45.93
2018-06-30T14:54:00.705Z,47.97
2018-06-30T14:56:03.776Z,47.43
2018-06-30T14:58:06.781Z,46.03
2018-06-30T15:00:09.754Z,47.77
2018-06-30T15:02:12.728Z,42.70
2018-06-30T15:04:15.609Z,44.10
2018-06-30T15:06:18.788Z,49.57
2018-06-30T15:08:21.896Z,46.73
2018-06-30T15:10:25.381Z,51.53
2018-06-30T15:12:28.435Z,43.57
2018-06-30T15:14:31.412Z,42.33
2018-06-30T15:16:34.432Z,44.53
2018-06-30T15:18:37.522Z,44.07
2018-06-30T15:20:40.509Z,51.13
2018-06-30T15:22:43.681Z,45.87
2018-06-30T15:24:46.582Z,47.70
2018-06-30T15:26:49.556Z,44.67
2018-06-30T15:28:52.553Z,41.87
2018-06-30T15:30:55.755Z,45.13
2018-06-30T15:32:58.721Z,43.83
2018-06-30T15:35:02.213Z,50.63
2018-06-30T15:37:05.257Z,42.80
2018-06-30T15:39:08.181Z,44.23
2018-06-30T15:41:10.911Z,45.73
2018-06-30T15:43:13.734Z,47.77
2018-06-30T15:45:16.726Z,46.53
2018-06-30T15:47:19.573Z,47.97
2018-06-30T15:49:22.701Z,47.77
2018-06-30T15:51:25.666Z,54.63
2018-06-30T15:53:28.541Z,49.27
2018-06-30T15:55:31.422Z,45.40
2018-06-30T15:57:34.516Z,48.67
2018-06-30T15:59:38.016Z,46.23
2018-06-30T16:01:40.985Z,46.37
2018-06-30T16:03:43.976Z,45.17
2018-06-30T16:05:46.865Z,43.37
2018-06-30T16:07:49.977Z,45.20
2018-06-30T16:09:53.093Z,45.17
2018-06-30T16:11:55.907Z,40.93
2018-06-30T16:13:58.896Z,42.60
2018-06-30T16:16:01.976Z,41.47
2018-06-30T16:18:04.958Z,42.27
2018-06-30T16:20:08.075Z,40.70
2018-06-30T16:22:11.029Z,39.97
2018-06-30T16:24:14.235Z,38.63
2018-06-30T16:26:17.203Z,40.07
2018-06-30T16:28:20.186Z,40.53
2018-06-30T16:30:23.072Z,40.37
2018-06-30T16:32:26.285Z,39.47
2018-06-30T16:34:29.451Z,38.63
2018-06-30T16:36:32.438Z,39.60
2018-06-30T16:38:35.644Z,37.77
2018-06-30T16:40:40.022Z,38.93
2018-06-30T16:42:42.918Z,41.47
2018-06-30T16:44:45.800Z,38.40
2018-06-30T16:46:48.990Z,38.27
2018-06-30T16:48:52.173Z,46.50
2018-06-30T16:50:55.119Z,45.57
2018-06-30T16:52:58.240Z,38.97
2018-06-30T16:55:01.325Z,38.80
2018-06-30T16:57:04.542Z,36.80
2018-06-30T16:59:07.617Z,41.67
2018-06-30T17:01:10.785Z,36.23
2018-06-30T17:03:13.768Z,34.67
2018-06-30T17:05:16.673Z,33.17
2018-06-30T17:07:19.543Z,31.47
2018-06-30T17:09:22.618Z,32.70
2018-06-30T17:11:25.804Z,34.03
2018-06-30T17:13:28.888Z,31.83
2018-06-30T17:15:31.669Z,30.60
2018-06-30T17:17:34.648Z,31.00
2018-06-30T17:19:37.544Z,30.80
2018-06-30T17:21:40.737Z,29.77
2018-06-30T17:23:43.603Z,30.13
2018-06-30T17:25:46.820Z,28.57
2018-06-30T17:27:49.983Z,28.40
2018-06-30T17:29:53.170Z,30.07
2018-06-30T17:31:56.058Z,28.67
2018-06-30T17:33:59.037Z,28.73
2018-06-30T17:36:02.018Z,28.67
2018-06-30T17:38:04.907Z,28.43
2018-06-30T17:40:07.998Z,27.73
2018-06-30T17:42:10.957Z,27.53
2018-06-30T17:44:13.957Z,34.53
2018-06-30T17:46:16.842Z,26.37
2018-06-30T17:48:19.825Z,27.33
2018-06-30T17:50:22.905Z,28.63
2018-06-30T17:52:25.994Z,27.10
2018-06-30T17:54:28.968Z,29.00
2018-06-30T17:56:32.073Z,27.63
2018-06-30T17:58:35.016Z,29.13
2018-06-30T18:00:38.231Z,28.93
2018-06-30T18:05:46.920Z,27.33
2018-06-30T18:07:49.953Z,27.37
2018-06-30T18:09:53.151Z,24.77
2018-06-30T18:11:56.123Z,26.10
2018-06-30T18:13:59.128Z,25.27
2018-06-30T18:16:02.309Z,25.57
2018-06-30T18:18:05.301Z,28.17
2018-06-30T18:20:08.474Z,25.33
2018-06-30T18:22:11.458Z,27.47
2018-06-30T18:24:15.356Z,28.37
2018-06-30T18:26:18.553Z,25.43
2018-06-30T18:28:21.625Z,24.97
2018-06-30T18:30:24.915Z,25.33
2018-06-30T18:32:27.796Z,25.77
2018-06-30T18:34:30.790Z,28.70
2018-06-30T18:36:33.579Z,24.50
2018-06-30T18:38:36.345Z,26.67
2018-06-30T18:40:39.023Z,23.77
2018-06-30T18:42:41.801Z,24.80
2018-06-30T18:44:44.882Z,23.10
2018-06-30T18:46:47.548Z,25.63
2018-06-30T18:48:50.335Z,25.50
2018-06-30T18:50:53.119Z,23.10
2018-06-30T18:52:56.139Z,26.43
2018-06-30T18:54:58.876Z,26.10
2018-06-30T18:57:01.875Z,24.93
2018-06-30T18:59:04.846Z,23.63
2018-06-30T19:01:07.523Z,25.83
2018-06-30T19:03:10.103Z,25.33
2018-06-30T19:05:12.885Z,24.47
2018-06-30T19:07:15.613Z,25.20
2018-06-30T19:09:18.329Z,23.70
2018-06-30T19:11:21.205Z,22.43
2018-06-30T19:13:23.915Z,23.00
2018-06-30T19:15:26.672Z,25.20
2018-06-30T19:17:29.441Z,24.13
2018-06-30T19:19:32.333Z,23.90
2018-06-30T19:21:35.105Z,21.80
2018-06-30T19:23:37.894Z,22.87
2018-06-30T19:25:40.768Z,24.63
2018-06-30T19:27:43.548Z,24.47
2018-06-30T19:29:46.425Z,22.83
2018-06-30T19:31:49.195Z,24.87
2018-06-30T19:33:51.973Z,24.73
2018-06-30T19:35:54.849Z,22.90
2018-06-30T19:37:57.754Z,21.90
2018-06-30T19:40:00.529Z,21.97
2018-06-30T19:42:03.194Z,25.50
2018-06-30T19:44:05.924Z,22.87
2018-06-30T19:46:08.927Z,21.83
2018-06-30T19:48:11.662Z,21.60
2018-06-30T19:50:14.424Z,22.63
2018-06-30T19:52:17.425Z,22.07
2018-06-30T19:54:20.146Z,22.77
2018-06-30T19:56:23.060Z,22.87
2018-06-30T19:58:25.838Z,25.00
2018-06-30T20:00:28.613Z,20.47
2018-06-30T20:02:31.401Z,24.30
2018-06-30T20:04:34.290Z,23.60
2018-06-30T20:06:37.265Z,23.73
2018-06-30T20:08:40.247Z,24.20
2018-06-30T20:10:43.220Z,21.50
2018-06-30T20:12:46.245Z,23.67
2018-06-30T20:14:48.987Z,23.73
2018-06-30T20:16:51.773Z,24.67
2018-06-30T20:18:54.440Z,22.77
2018-06-30T20:20:57.284Z,22.50
2018-06-30T20:22:59.892Z,23.53
2018-06-30T20:25:02.674Z,25.00
2018-06-30T20:27:05.558Z,23.23
2018-06-30T20:29:08.333Z,25.80
2018-06-30T20:31:11.110Z,24.60
2018-06-30T20:33:14.109Z,23.47
2018-06-30T20:35:17.902Z,24.70
2018-06-30T20:37:21.015Z,25.63
2018-06-30T20:39:23.882Z,29.07
2018-06-30T20:41:26.653Z,26.17
2018-06-30T20:43:29.734Z,25.47
2018-06-30T20:45:32.620Z,25.90
2018-06-30T20:47:35.615Z,27.67
2018-06-30T20:49:38.478Z,26.20
2018-06-30T20:51:41.262Z,27.13
2018-06-30T20:53:43.939Z,27.43
2018-06-30T20:55:46.916Z,27.53
2018-06-30T20:57:49.687Z,27.93
2018-06-30T20:59:52.585Z,25.33
2018-06-30T21:01:55.244Z,28.70
2018-06-30T21:03:58.040Z,29.10
2018-06-30T21:06:00.702Z,28.33
2018-06-30T21:08:04.446Z,29.10
2018-06-30T21:10:07.583Z,27.70
2018-06-30T21:12:10.480Z,29.77
2018-06-30T21:14:13.479Z,29.07
2018-06-30T21:16:16.347Z,28.73
2018-06-30T21:18:19.320Z,29.30
2018-06-30T21:20:22.434Z,30.30
2018-06-30T21:22:25.108Z,29.60
2018-06-30T21:24:27.866Z,31.30
2018-06-30T21:26:30.833Z,29.63
2018-06-30T21:28:33.642Z,30.63
2018-06-30T21:30:36.445Z,43.27
2018-06-30T21:32:39.288Z,29.60
2018-06-30T21:34:42.273Z,28.10
2018-06-30T21:36:45.366Z,30.07
2018-06-30T21:38:48.457Z,29.67
2018-06-30T21:40:51.322Z,29.83
2018-06-30T21:42:54.334Z,29.57
2018-06-30T21:44:56.989Z,29.00
2018-06-30T21:46:59.891Z,28.93
2018-06-30T21:49:02.867Z,29.70
2018-06-30T21:51:05.631Z,29.20
2018-06-30T21:53:08.646Z,30.27
2018-06-30T21:55:11.380Z,28.60
2018-06-30T21:57:14.266Z,29.17
2018-06-30T21:59:17.046Z,32.90
2018-06-30T22:01:19.931Z,31.37
2018-06-30T22:03:22.918Z,30.40
2018-06-30T22:05:25.904Z,29.80
2018-06-30T22:07:29.784Z,30.57
2018-06-30T22:09:32.584Z,30.60
2018-06-30T22:11:35.368Z,30.07
2018-06-30T22:13:38.130Z,32.07
2018-06-30T22:15:40.918Z,30.70
2018-06-30T22:17:43.695Z,27.93
2018-06-30T22:19:46.473Z,29.87
2018-06-30T22:21:49.457Z,28.57
2018-06-30T22:23:53.056Z,29.80
2018-06-30T22:25:55.722Z,30.20
2018-06-30T22:27:58.915Z,31.33
2018-06-30T22:30:01.693Z,29.30
2018-06-30T22:32:05.086Z,28.50
2018-06-30T22:34:07.760Z,29.20
2018-06-30T22:36:10.539Z,29.60
2018-06-30T22:38:13.530Z,29.53
2018-06-30T22:40:16.567Z,29.50
2018-06-30T22:42:19.392Z,29.27
2018-06-30T22:44:22.266Z,31.10
2018-06-30T22:46:24.971Z,29.13
2018-06-30T22:48:27.944Z,30.43
2018-06-30T22:50:30.607Z,28.50
2018-06-30T22:52:33.801Z,28.73
2018-06-30T22:54:36.579Z,29.73
2018-06-30T22:56:39.364Z,29.43
2018-06-30T22:58:42.244Z,31.53
2018-06-30T23:00:44.811Z,30.87
2018-06-30T23:02:47.694Z,31.33
2018-06-30T23:04:50.568Z,29.63
2018-06-30T23:06:53.301Z,29.43
2018-06-30T23:08:56.240Z,29.80
2018-06-30T23:10:59.288Z,30.00
2018-06-30T23:13:02.223Z,29.93
2018-06-30T23:15:04.988Z,28.63
2018-06-30T23:17:07.854Z,28.90
2018-06-30T23:19:11.283Z,30.93
2018-06-30T23:21:16.007Z,30.30
2018-06-30T23:23:18.748Z,30.60
2018-06-30T23:25:21.640Z,30.07
2018-06-30T23:27:24.525Z,29.10
2018-06-30T23:29:27.501Z,28.30
2018-06-30T23:31:30.498Z,27.03
2018-06-30T23:33:33.167Z,30.60
2018-06-30T23:35:36.137Z,29.03
2018-06-30T23:37:38.925Z,28.87
2018-06-30T23:39:41.913Z,28.70
2018-06-30T23:41:45.438Z,28.53
2018-06-30T23:43:48.844Z,28.63
2018-06-30T23:45:52.401Z,31.07
2018-06-30T23:47:55.585Z,31.40
2018-06-30T23:49:58.415Z,32.80
2018-06-30T23:52:01.151Z,30.80
2018-06-30T23:54:04.024Z,28.80
2018-06-30T23:56:06.791Z,30.17
2018-06-30T23:58:09.874Z,30.73
